Koyomaru No.7 — JPTE — position and weather

sailwx.info

Track history (hours):
 
Tides and Currents Weather Stations Pressure Air Temp Water Temp Dewpoint Dewpoint Depression Visibility Wind Speed Wind Dir Waves Ship Positions

Koyomaru No.7

Last reported at 2018-Feb-09 10:00 UTC. Time now 2018-Jun-25 17:40 UTC.
Position N 34°60' E 139°42'.
Warning: this ship's position is months out of date.

Length 56 m; draft 5 m.

Type: Fishing. MMSI: 431704520.

Date/timePositionNaut miles runAvg speedWind from/ knotsBaromVisibWave heightAir tempDewpointWater temp
2018-Feb-09 10:00N 34°60' E 139°42'1111.5
2018-Feb-09 09:00N 35°11' E 139°46'1111.2
2018-Feb-09 08:00N 35°22' E 139°42'15 0.6
2018-Feb-08 05:30N 35°36' E 139°47'7 3.5
2018-Feb-08 03:30N 35°30' E 139°52'14 7.1
2018-Feb-08 01:31N 35°17' E 139°45'510.3
2018-Feb-08 01:00N 35°12' E 139°47'611.3
2018-Feb-08 00:30N 35°07' E 139°45'1811.0
2018-Feb-07 22:54N 34°49' E 139°41'  
Track history (hours):
 
Tides and Currents Weather Stations Pressure Air Temp Water Temp Dewpoint Dewpoint Depression Visibility Wind Speed Wind Dir Waves Ship Positions

Koyomaru No.7

Last reported at 2018-Feb-09 10:00 UTC. Time now 2018-Jun-25 17:40 UTC.
Position N 34°60' E 139°42'.
Warning: this ship's position is months out of date.

Length 56 m; draft 5 m.

Type: Fishing. MMSI: 431704520.

Date/timePositionNaut miles runAvg speedWind from/ knotsBaromVisibWave heightAir tempDewpointWater temp
2018-Feb-09 10:00N 34°60' E 139°42'1111.5
2018-Feb-09 09:00N 35°11' E 139°46'1111.2
2018-Feb-09 08:00N 35°22' E 139°42'15 0.6
2018-Feb-08 05:30N 35°36' E 139°47'7 3.5
2018-Feb-08 03:30N 35°30' E 139°52'14 7.1
2018-Feb-08 01:31N 35°17' E 139°45'510.3
2018-Feb-08 01:00N 35°12' E 139°47'611.3
2018-Feb-08 00:30N 35°07' E 139°45'1811.0
2018-Feb-07 22:54N 34°49' E 139°41'  

Dump ship's entire track history